Time;durP1;ratioP1;P1;durP2;ratioP2;P2;SDS_P1;SDS_P2;PMS_P1;PMS_P2;Temp;Humidity;BMP_temperature;BMP_pressure;BME280_temperature;BME280_humidity;BME280_pressure;Samples;Min_cycle;Max_cycle;Signal;HPM_P1;HPM_P2
2023/09/19 00:01:45;;;;;;;;;;;;;;;;;;5093814;28;845;-64
2023/09/19 00:04:12;;;;;;;;;;;;;;;;;;5093184;28;911;-65
2023/09/19 00:06:38;;;;;;;;;;;;;;;;;;5093392;28;824;-65
2023/09/19 00:09:03;;;;;;;;;;;;;;;;;;5092090;28;951;-65
2023/09/19 00:11:29;;;;;;;;;;;;;;;;;;5092258;28;820;-65
2023/09/19 00:13:54;;;;;;;;;;;;;;;;;;5093632;28;1242;-65
2023/09/19 00:16:19;;;;;;;;;;;;;;;;;;5091295;28;1965;-65
2023/09/19 00:18:45;;;;;;;;;;;;;;;;;;5092803;28;929;-64
2023/09/19 00:21:11;;;;;;;;;;;;;;;;;;5091108;28;1407;-64
2023/09/19 00:23:36;;;;;;;;;;;;;;;;;;5092348;28;888;-64
2023/09/19 00:26:01;;;;;;;;;;;;;;;;;;5092761;28;1049;-64
2023/09/19 00:28:27;;;;;;;;;;;;;;;;;;5091259;28;1394;-65
2023/09/19 00:30:55;;;;;;;;;;;;;;;;;;5092780;28;884;-65
2023/09/19 00:33:20;;;;;;;;;;;;;;;;;;5091851;28;894;-65
2023/09/19 00:35:49;;;;;;;;;;;;;;;;;;5092597;28;1887;-64
2023/09/19 00:38:19;;;;;;;;;;;;;;;;;;5092268;28;886;-64
2023/09/19 00:40:45;;;;;;;;;;;;;;;;;;5093483;28;928;-64
2023/09/19 00:43:11;;;;;;;;;;;;;;;;;;5093196;28;848;-65
2023/09/19 00:45:38;;;;;;;;;;;;;;;;;;5091819;28;829;-65
2023/09/19 00:48:11;;;;;;;;;;;;;;;;;;5093495;28;868;-65
2023/09/19 00:50:36;;;;;;;;;;;;;;;;;;5092689;28;860;-65
2023/09/19 00:53:07;;;;;;;;;;;;;;;;;;5091851;28;845;-65
2023/09/19 00:55:34;;;;;;;;;;;;;;;;;;5091480;28;1910;-65
2023/09/19 00:57:59;;;;;;;;;;;;;;;;;;5092195;28;864;-65
2023/09/19 01:00:25;;;;;;;;;;;;;;;;;;5091396;28;912;-64
2023/09/19 01:02:50;;;;;;;;;;;;;;;;;;5092478;28;975;-65
2023/09/19 01:05:15;;;;;;;;;;;;;;;;;;5091627;28;1022;-65
2023/09/19 01:07:41;;;;;;;;;;;;;;;;;;5092386;28;848;-65
2023/09/19 01:10:11;;;;;;;;;;;;;;;;;;5092128;28;864;-65
2023/09/19 01:12:57;;;;;;;;;;;;;;;;;;5091987;28;844;-65
2023/09/19 01:15:22;;;;;;;;;;;;;;;;;;5079532;28;1965;-65
2023/09/19 01:18:06;;;;;;;;;;;;;;;;;;5092754;28;993;-65
2023/09/19 01:20:34;;;;;;;;;;;;;;;;;;5092088;28;863;-65
2023/09/19 01:23:10;;;;;;;;;;;;;;;;;;5092625;28;883;-65
2023/09/19 01:25:41;;;;;;;;;;;;;;;;;;5091939;28;905;-64
2023/09/19 01:28:14;;;;;;;;;;;;;;;;;;5092656;28;836;-64
2023/09/19 01:30:43;;;;;;;;;;;;;;;;;;5091803;28;786;-64
2023/09/19 01:33:10;;;;;;;;;;;;;;;;;;5092620;28;843;-64
2023/09/19 01:35:38;;;;;;;;;;;;;;;;;;5091233;28;1907;-64
2023/09/19 01:38:04;;;;;;;;;;;;;;;;;;5091814;28;789;-64
2023/09/19 01:40:30;;;;;;;;;;;;;;;;;;5090566;28;867;-65
2023/09/19 01:43:14;;;;;;;;;;;;;;;;;;5093085;28;1250;-64
2023/09/19 01:45:54;;;;;;;;;;;;;;;;;;5105541;28;1231;-64
2023/09/19 01:48:20;;;;;;;;;;;;;;;;;;5104752;28;1152;-64
2023/09/19 01:51:05;;;;;;;;;;;;;;;;;;5104352;28;1170;-64
2023/09/19 01:53:36;;;;;;;;;;;;;;;;;;5111067;28;907;-64
2023/09/19 01:56:05;;;;;;;;;;;;;;;;;;5111662;28;1894;-64
2023/09/19 01:58:34;;;;;;;;;;;;;;;;;;5110925;28;864;-64
2023/09/19 02:01:00;;;;;;;;;;;;;;;;;;5110154;28;1450;-65
2023/09/19 02:03:27;;;;;;;;;;;;;;;;;;5111118;28;892;-64
2023/09/19 02:05:53;;;;;;;;;;;;;;;;;;5111366;28;2206;-64
2023/09/19 02:08:20;;;;;;;;;;;;;;;;;;5110943;28;848;-64
2023/09/19 02:10:48;;;;;;;;;;;;;;;;;;5111954;28;990;-64
2023/09/19 02:13:21;;;;;;;;;;;;;;;;;;5111187;28;931;-64
2023/09/19 02:15:46;;;;;;;;;;;;;;;;;;5111629;28;1951;-64
2023/09/19 02:18:12;;;;;;;;;;;;;;;;;;5112164;28;836;-65
2023/09/19 02:20:37;;;;;;;;;;;;;;;;;;5111384;28;848;-64
2023/09/19 02:23:03;;;;;;;;;;;;;;;;;;5111887;28;1049;-64
2023/09/19 02:25:28;;;;;;;;;;;;;;;;;;5111551;28;867;-64
2023/09/19 02:27:53;;;;;;;;;;;;;;;;;;5111985;28;903;-64
2023/09/19 02:30:20;;;;;;;;;;;;;;;;;;5111172;28;836;-64
2023/09/19 02:32:46;;;;;;;;;;;;;;;;;;5112310;28;900;-64
2023/09/19 02:35:12;;;;;;;;;;;;;;;;;;5115765;28;1890;-63
2023/09/19 02:37:37;;;;;;;;;;;;;;;;;;5114675;28;868;-63
2023/09/19 02:40:18;;;;;;;;;;;;;;;;;;5115297;27;888;-64
2023/09/19 02:42:48;;;;;;;;;;;;;;;;;;5114945;28;860;-64
2023/09/19 02:45:13;;;;;;;;;;;;;;;;;;5115405;28;905;-65
2023/09/19 02:47:42;;;;;;;;;;;;;;;;;;5114720;27;860;-64
2023/09/19 02:50:09;;;;;;;;;;;;;;;;;;5114618;28;855;-64
2023/09/19 02:52:34;;;;;;;;;;;;;;;;;;5114144;28;828;-65
2023/09/19 02:55:01;;;;;;;;;;;;;;;;;;5114882;28;1958;-65
2023/09/19 02:57:27;;;;;;;;;;;;;;;;;;5113277;28;852;-64
2023/09/19 02:59:52;;;;;;;;;;;;;;;;;;5113753;28;1450;-64
2023/09/19 03:02:18;;;;;;;;;;;;;;;;;;5114141;28;860;-64
2023/09/19 03:04:44;;;;;;;;;;;;;;;;;;5114342;28;1016;-64
2023/09/19 03:07:11;;;;;;;;;;;;;;;;;;5113591;28;906;-64
2023/09/19 03:09:36;;;;;;;;;;;;;;;;;;5114188;28;843;-65
2023/09/19 03:12:03;;;;;;;;;;;;;;;;;;5114701;28;872;-65
2023/09/19 03:14:30;;;;;;;;;;;;;;;;;;5112478;28;1076;-65
2023/09/19 03:16:55;;;;;;;;;;;;;;;;;;5113458;28;1225;-65
2023/09/19 03:19:23;;;;;;;;;;;;;;;;;;5113721;28;851;-65
2023/09/19 03:21:50;;;;;;;;;;;;;;;;;;5112717;28;888;-65
2023/09/19 03:24:15;;;;;;;;;;;;;;;;;;5114533;28;852;-65
2023/09/19 03:26:41;;;;;;;;;;;;;;;;;;5112534;28;1381;-65
2023/09/19 03:29:06;;;;;;;;;;;;;;;;;;5114198;28;1069;-65
2023/09/19 03:31:32;;;;;;;;;;;;;;;;;;5113314;28;872;-65
2023/09/19 03:33:57;;;;;;;;;;;;;;;;;;5113338;28;888;-64
2023/09/19 03:36:23;;;;;;;;;;;;;;;;;;5112220;28;1901;-65
2023/09/19 03:38:48;;;;;;;;;;;;;;;;;;5112358;28;1072;-65
2023/09/19 03:41:16;;;;;;;;;;;;;;;;;;5114298;28;831;-65
2023/09/19 03:43:41;;;;;;;;;;;;;;;;;;5111322;28;946;-65
2023/09/19 03:46:07;;;;;;;;;;;;;;;;;;5114253;28;919;-65
2023/09/19 03:48:33;;;;;;;;;;;;;;;;;;5114085;28;824;-64
2023/09/19 03:50:58;;;;;;;;;;;;;;;;;;5112885;28;1380;-65
2023/09/19 03:53:24;;;;;;;;;;;;;;;;;;5113758;28;859;-64
2023/09/19 03:55:49;;;;;;;;;;;;;;;;;;5113036;28;1901;-64
2023/09/19 03:58:15;;;;;;;;;;;;;;;;;;5114329;28;938;-64
2023/09/19 04:00:40;;;;;;;;;;;;;;;;;;5115051;28;832;-64
2023/09/19 04:03:06;;;;;;;;;;;;;;;;;;5115401;28;966;-64
2023/09/19 04:05:33;;;;;;;;;;;;;;;;;;5113452;28;1443;-64
2023/09/19 04:07:58;;;;;;;;;;;;;;;;;;5113927;28;1343;-64
2023/09/19 04:10:23;;;;;;;;;;;;;;;;;;5114888;28;812;-64
2023/09/19 04:12:56;;;;;;;;;;;;;;;;;;5114909;28;852;-65
2023/09/19 04:15:22;;;;;;;;;;;;;;;;;;5112664;28;2015;-65
2023/09/19 04:17:48;;;;;;;;;;;;;;;;;;5114158;27;844;-64
2023/09/19 04:20:14;;;;;;;;;;;;;;;;;;5112778;28;1186;-64
2023/09/19 04:22:39;;;;;;;;;;;;;;;;;;5106967;28;1204;-64
2023/09/19 04:25:06;;;;;;;;;;;;;;;;;;5096531;28;1116;-64
2023/09/19 04:27:32;;;;;;;;;;;;;;;;;;5113171;28;852;-64
2023/09/19 04:29:59;;;;;;;;;;;;;;;;;;5113747;28;879;-64
2023/09/19 04:32:24;;;;;;;;;;;;;;;;;;5112414;28;875;-64
2023/09/19 04:34:49;;;;;;;;;;;;;;;;;;5111704;28;1894;-64
2023/09/19 04:37:15;;;;;;;;;;;;;;;;;;5113922;28;833;-64
2023/09/19 04:39:40;;;;;;;;;;;;;;;;;;5113912;28;797;-64
2023/09/19 04:42:06;;;;;;;;;;;;;;;;;;5115603;28;984;-64
2023/09/19 04:44:31;;;;;;;;;;;;;;;;;;5115078;27;860;-65
2023/09/19 04:46:57;;;;;;;;;;;;;;;;;;5113681;28;970;-64
2023/09/19 04:49:22;;;;;;;;;;;;;;;;;;5112225;28;1156;-64
2023/09/19 04:51:47;;;;;;;;;;;;;;;;;;5113061;28;825;-64
2023/09/19 04:54:13;;;;;;;;;;;;;;;;;;5110855;27;1242;-65
2023/09/19 04:56:40;;;;;;;;;;;;;;;;;;5095681;28;1951;-65
2023/09/19 04:59:05;;;;;;;;;;;;;;;;;;5092088;28;862;-66
2023/09/19 05:01:31;;;;;;;;;;;;;;;;;;5090679;28;973;-65
2023/09/19 05:03:56;;;;;;;;;;;;;;;;;;5092042;28;906;-65
2023/09/19 05:06:21;;;;;;;;;;;;;;;;;;5090189;28;1513;-65
2023/09/19 05:08:50;;;;;;;;;;;;;;;;;;5091571;28;915;-65
2023/09/19 05:11:16;;;;;;;;;;;;;;;;;;5092317;28;757;-65
2023/09/19 05:13:43;;;;;;;;;;;;;;;;;;5091258;28;1270;-65
2023/09/19 05:16:09;;;;;;;;;;;;;;;;;;5091412;28;1976;-65
2023/09/19 05:18:35;;;;;;;;;;;;;;;;;;5091730;28;875;-65
2023/09/19 05:21:01;;;;;;;;;;;;;;;;;;5091728;28;915;-65
2023/09/19 05:23:28;;;;;;;;;;;;;;;;;;5091860;28;820;-65
2023/09/19 05:25:54;;;;;;;;;;;;;;;;;;5092293;28;1296;-65
2023/09/19 05:28:19;;;;;;;;;;;;;;;;;;5091868;28;844;-64
2023/09/19 05:30:45;;;;;;;;;;;;;;;;;;5092466;28;1035;-65
2023/09/19 05:33:11;;;;;;;;;;;;;;;;;;5092385;28;853;-65
2023/09/19 05:35:39;;;;;;;;;;;;;;;;;;5074142;28;1977;-65
2023/09/19 05:38:05;;;;;;;;;;;;;;;;;;5092599;28;835;-65
2023/09/19 05:40:30;;;;;;;;;;;;;;;;;;5091096;28;899;-65
2023/09/19 05:42:56;;;;;;;;;;;;;;;;;;5091147;28;932;-65
2023/09/19 05:45:24;;;;;;;;;;;;;;;;;;5092538;28;829;-65
2023/09/19 05:47:50;;;;;;;;;;;;;;;;;;5092827;28;828;-65
2023/09/19 05:50:16;;;;;;;;;;;;;;;;;;5090975;28;1353;-65
2023/09/19 05:52:42;;;;;;;;;;;;;;;;;;5091010;28;1298;-65
2023/09/19 05:55:08;;;;;;;;;;;;;;;;;;5092389;28;1963;-65
2023/09/19 05:57:38;;;;;;;;;;;;;;;;;;5090222;28;1265;-65
2023/09/19 06:00:08;;;;;;;;;;;;;;;;;;5090628;28;1414;-65
2023/09/19 06:02:34;;;;;;;;;;;;;;;;;;5090194;28;1238;-65
2023/09/19 06:04:59;;;;;;;;;;;;;;;;;;5091224;28;915;-65
2023/09/19 06:07:26;;;;;;;;;;;;;;;;;;5090826;28;936;-65
2023/09/19 06:09:52;;;;;;;;;;;;;;;;;;5090856;28;859;-65
2023/09/19 06:12:17;;;;;;;;;;;;;;;;;;5090983;28;742;-65
2023/09/19 06:14:43;;;;;;;;;;;;;;;;;;5071899;28;1967;-65
2023/09/19 06:17:08;;;;;;;;;;;;;;;;;;5090744;28;891;-65
2023/09/19 06:19:33;;;;;;;;;;;;;;;;;;5088874;28;1374;-65
2023/09/19 06:21:59;;;;;;;;;;;;;;;;;;5090569;28;840;-65
2023/09/19 06:24:25;;;;;;;;;;;;;;;;;;5089651;28;758;-65
2023/09/19 06:26:52;;;;;;;;;;;;;;;;;;5090683;28;852;-66
2023/09/19 06:29:18;;;;;;;;;;;;;;;;;;5089694;28;1127;-66
2023/09/19 06:31:44;;;;;;;;;;;;;;;;;;5090693;28;828;-65
2023/09/19 06:34:09;;;;;;;;;;;;;;;;;;5090481;28;820;-66
2023/09/19 06:36:34;;;;;;;;;;;;;;;;;;5090282;28;1902;-66
2023/09/19 06:39:00;;;;;;;;;;;;;;;;;;5090649;28;895;-66
2023/09/19 06:41:25;;;;;;;;;;;;;;;;;;5091129;28;939;-66
2023/09/19 06:43:53;;;;;;;;;;;;;;;;;;5090749;28;943;-66
2023/09/19 06:46:18;;;;;;;;;;;;;;;;;;5090827;28;836;-66
2023/09/19 06:48:44;;;;;;;;;;;;;;;;;;5089002;28;1599;-66
2023/09/19 06:51:09;;;;;;;;;;;;;;;;;;5090642;28;1131;-66
2023/09/19 06:53:36;;;;;;;;;;;;;;;;;;5090043;28;887;-66
2023/09/19 06:56:02;;;;;;;;;;;;;;;;;;5090360;28;1897;-66
2023/09/19 06:58:27;;;;;;;;;;;;;;;;;;5090558;28;789;-66
2023/09/19 07:00:53;;;;;;;;;;;;;;;;;;5090647;28;879;-66
2023/09/19 07:03:21;;;;;;;;;;;;;;;;;;5089327;28;1414;-66
2023/09/19 07:05:47;;;;;;;;;;;;;;;;;;5089234;28;1057;-66
2023/09/19 07:08:12;;;;;;;;;;;;;;;;;;5072528;28;849;-66
2023/09/19 07:10:39;;;;;;;;;;;;;;;;;;5090348;28;839;-66
2023/09/19 07:13:08;;;;;;;;;;;;;;;;;;5090844;28;769;-66
2023/09/19 07:15:36;;;;;;;;;;;;;;;;;;5090415;28;1909;-66
2023/09/19 07:18:01;;;;;;;;;;;;;;;;;;5091849;28;840;-65
2023/09/19 07:20:31;;;;;;;;;;;;;;;;;;5095056;28;978;-66
2023/09/19 07:22:59;;;;;;;;;;;;;;;;;;5094721;28;832;-66
2023/09/19 07:25:24;;;;;;;;;;;;;;;;;;5094928;28;934;-66
2023/09/19 07:27:51;;;;;;;;;;;;;;;;;;5095672;28;828;-65
2023/09/19 07:30:16;;;;;;;;;;;;;;;;;;5093869;28;1125;-65
2023/09/19 07:32:42;;;;;;;;;;;;;;;;;;5094983;28;855;-66
2023/09/19 07:35:07;;;;;;;;;;;;;;;;;;5094618;28;1914;-65
2023/09/19 07:37:36;;;;;;;;;;;;;;;;;;5094179;28;954;-65
2023/09/19 07:40:03;;;;;;;;;;;;;;;;;;5093764;28;876;-65
2023/09/19 07:42:28;;;;;;;;;;;;;;;;;;5093383;28;856;-65
2023/09/19 07:44:53;;;;;;;;;;;;;;;;;;5093511;28;896;-65
2023/09/19 07:47:19;;;;;;;;;;;;;;;;;;5092256;28;860;-66
2023/09/19 07:49:47;;;;;;;;;;;;;;;;;;5093430;28;579;-65
2023/09/19 07:52:13;;;;;;;;;;;;;;;;;;5093070;28;812;-66
2023/09/19 07:54:38;;;;;;;;;;;;;;;;;;5093369;28;820;-66
2023/09/19 07:57:04;;;;;;;;;;;;;;;;;;5093023;28;1890;-66
2023/09/19 07:59:29;;;;;;;;;;;;;;;;;;5093062;28;883;-65
2023/09/19 08:01:55;;;;;;;;;;;;;;;;;;5093719;28;840;-65
2023/09/19 08:04:20;;;;;;;;;;;;;;;;;;5092914;28;1006;-65
2023/09/19 08:06:45;;;;;;;;;;;;;;;;;;5091690;28;1440;-66
2023/09/19 08:09:12;;;;;;;;;;;;;;;;;;5093265;28;883;-65
2023/09/19 08:11:39;;;;;;;;;;;;;;;;;;5093043;28;801;-66
2023/09/19 08:14:05;;;;;;;;;;;;;;;;;;5093428;28;867;-65
2023/09/19 08:16:30;;;;;;;;;;;;;;;;;;5092162;28;1914;-65
2023/09/19 08:18:56;;;;;;;;;;;;;;;;;;5091621;28;1074;-65
2023/09/19 08:21:23;;;;;;;;;;;;;;;;;;5091424;28;1339;-65
2023/09/19 08:23:48;;;;;;;;;;;;;;;;;;5092440;28;887;-65
2023/09/19 08:26:14;;;;;;;;;;;;;;;;;;5092818;28;987;-65
2023/09/19 08:28:40;;;;;;;;;;;;;;;;;;5092953;28;1137;-65
2023/09/19 08:31:06;;;;;;;;;;;;;;;;;;5091462;28;805;-65
2023/09/19 08:33:33;;;;;;;;;;;;;;;;;;5091543;28;960;-65
2023/09/19 08:35:58;;;;;;;;;;;;;;;;;;5093321;28;1943;-65
2023/09/19 08:38:23;;;;;;;;;;;;;;;;;;5093097;28;757;-65
2023/09/19 08:40:49;;;;;;;;;;;;;;;;;;5092988;28;1069;-66
2023/09/19 08:43:14;;;;;;;;;;;;;;;;;;5093074;28;855;-65
2023/09/19 08:45:40;;;;;;;;;;;;;;;;;;5093038;28;777;-66
2023/09/19 08:48:05;;;;;;;;;;;;;;;;;;5091320;28;1110;-66
2023/09/19 08:50:31;;;;;;;;;;;;;;;;;;5092825;28;883;-67
2023/09/19 08:53:00;;;;;;;;;;;;;;;;;;5093521;28;899;-64
2023/09/19 08:55:28;;;;;;;;;;;;;;;;;;5092506;28;2037;-66
2023/09/19 08:58:01;;;;;;;;;;;;;;;;;;5093609;28;908;-65
2023/09/19 09:00:27;;;;;;;;;;;;;;;;;;5091790;28;880;-66
2023/09/19 09:02:54;;;;;;;;;;;;;;;;;;5092196;28;896;-66
2023/09/19 09:05:22;;;;;;;;;;;;;;;;;;5092924;28;1076;-65
2023/09/19 09:07:50;;;;;;;;;;;;;;;;;;5093729;28;929;-65
2023/09/19 09:10:16;;;;;;;;;;;;;;;;;;5092999;28;875;-67
2023/09/19 09:12:43;;;;;;;;;;;;;;;;;;5092434;28;911;-66
2023/09/19 09:15:11;;;;;;;;;;;;;;;;;;5090709;28;1906;-67
2023/09/19 09:17:37;;;;;;;;;;;;;;;;;;5091337;28;1116;-67
2023/09/19 09:20:04;;;;;;;;;;;;;;;;;;5091569;28;887;-66
2023/09/19 09:22:30;;;;;;;;;;;;;;;;;;5089638;28;1648;-66
2023/09/19 09:25:04;;;;;;;;;;;;;;;;;;5091643;28;875;-65
2023/09/19 09:27:31;;;;;;;;;;;;;;;;;;5091741;28;835;-66
2023/09/19 09:29:56;;;;;;;;;;;;;;;;;;5090368;28;856;-64
2023/09/19 09:32:21;;;;;;;;;;;;;;;;;;5091262;28;889;-64
2023/09/19 09:34:57;;;;;;;;;;;;;;;;;;5089700;28;1913;-64
2023/09/19 09:37:24;;;;;;;;;;;;;;;;;;5089309;28;1241;-64
2023/09/19 09:39:54;;;;;;;;;;;;;;;;;;5091901;28;908;-65
2023/09/19 09:42:31;;;;;;;;;;;;;;;;;;5088375;28;922;-64
2023/09/19 09:45:17;;;;;;;;;;;;;;;;;;5091366;28;860;-65
2023/09/19 09:47:49;;;;;;;;;;;;;;;;;;5090565;28;828;-66
2023/09/19 09:50:28;;;;;;;;;;;;;;;;;;5091131;28;836;-64
2023/09/19 09:52:55;;;;;;;;;;;;;;;;;;5090201;28;927;-64
2023/09/19 09:55:20;;;;;;;;;;;;;;;;;;5090297;28;1975;-64
2023/09/19 09:57:46;;;;;;;;;;;;;;;;;;5100282;28;1199;-64
2023/09/19 10:02:36;;;;;;;;;;;;;;;;;;5111108;28;827;-65
2023/09/19 10:08:00;;;;;;;;;;;;;;;;;;5111906;28;637;-64
2023/09/19 10:10:53;;;;;;;;;;;;;;;;;;5110687;28;836;-64
2023/09/19 10:13:21;;;;;;;;;;;;;;;;;;5110368;28;1154;-65
2023/09/19 10:15:50;;;;;;;;;;;;;;;;;;5109076;28;1914;-65
2023/09/19 10:18:26;;;;;;;;;;;;;;;;;;5110463;28;911;-65
2023/09/19 10:20:52;;;;;;;;;;;;;;;;;;5112299;28;875;-64
2023/09/19 10:23:22;;;;;;;;;;;;;;;;;;5112183;28;848;-64
2023/09/19 10:25:48;;;;;;;;;;;;;;;;;;5112366;28;836;-64
2023/09/19 10:28:14;;;;;;;;;;;;;;;;;;5112125;28;935;-64
2023/09/19 10:30:44;;;;;;;;;;;;;;;;;;5112105;28;930;-64
2023/09/19 10:33:11;;;;;;;;;;;;;;;;;;5112881;28;859;-64
2023/09/19 10:35:43;;;;;;;;;;;;;;;;;;5112931;28;1937;-64
2023/09/19 10:38:12;;;;;;;;;;;;;;;;;;5113161;28;867;-64
2023/09/19 10:40:42;;;;;;;;;;;;;;;;;;5110634;28;1555;-64
2023/09/19 10:43:11;;;;;;;;;;;;;;;;;;5112726;28;934;-64
2023/09/19 10:45:39;;;;;;;;;;;;;;;;;;5112019;28;891;-65
2023/09/19 10:48:05;;;;;;;;;;;;;;;;;;5111770;28;880;-65
2023/09/19 10:50:33;;;;;;;;;;;;;;;;;;5111359;28;904;-65
2023/09/19 10:53:04;;;;;;;;;;;;;;;;;;5112586;28;809;-65
2023/09/19 10:55:30;;;;;;;;;;;;;;;;;;5113995;28;1905;-65
2023/09/19 10:57:57;;;;;;;;;;;;;;;;;;5114503;28;832;-66
2023/09/19 11:00:34;;;;;;;;;;;;;;;;;;5114229;27;950;-65
2023/09/19 11:03:11;;;;;;;;;;;;;;;;;;5114627;28;928;-65
2023/09/19 11:05:40;;;;;;;;;;;;;;;;;;5114037;28;1067;-65
2023/09/19 11:08:11;;;;;;;;;;;;;;;;;;5114494;28;879;-66
2023/09/19 11:10:49;;;;;;;;;;;;;;;;;;5113862;28;897;-65
2023/09/19 11:13:30;;;;;;;;;;;;;;;;;;5114056;28;887;-65
2023/09/19 11:15:58;;;;;;;;;;;;;;;;;;5114046;28;1951;-65
2023/09/19 11:18:43;;;;;;;;;;;;;;;;;;5112549;28;1300;-65
2023/09/19 11:21:31;;;;;;;;;;;;;;;;;;5114250;28;906;-65
2023/09/19 11:24:22;;;;;;;;;;;;;;;;;;5114478;28;836;-65
2023/09/19 11:26:47;;;;;;;;;;;;;;;;;;5113965;28;883;-65
2023/09/19 11:29:26;;;;;;;;;;;;;;;;;;5114234;28;884;-65
2023/09/19 11:31:51;;;;;;;;;;;;;;;;;;5114169;28;832;-65
2023/09/19 11:34:35;;;;;;;;;;;;;;;;;;5113627;28;812;-66
2023/09/19 11:37:04;;;;;;;;;;;;;;;;;;5113717;27;1965;-66
2023/09/19 11:39:29;;;;;;;;;;;;;;;;;;5112947;28;852;-66
2023/09/19 11:41:56;;;;;;;;;;;;;;;;;;5112973;28;832;-66
2023/09/19 11:44:33;;;;;;;;;;;;;;;;;;5112960;28;910;-65
2023/09/19 11:46:59;;;;;;;;;;;;;;;;;;5112265;28;1447;-66
2023/09/19 11:49:33;;;;;;;;;;;;;;;;;;5111666;28;832;-65
2023/09/19 11:52:08;;;;;;;;;;;;;;;;;;5114108;28;829;-66
2023/09/19 11:54:33;;;;;;;;;;;;;;;;;;5114044;28;950;-66
2023/09/19 11:57:00;;;;;;;;;;;;;;;;;;5114250;28;1909;-67
2023/09/19 11:59:29;;;;;;;;;;;;;;;;;;5113910;27;866;-65
2023/09/19 12:02:03;;;;;;;;;;;;;;;;;;5114508;28;792;-65
2023/09/19 12:04:38;;;;;;;;;;;;;;;;;;5112220;28;930;-65
2023/09/19 12:07:10;;;;;;;;;;;;;;;;;;5113999;28;897;-65
2023/09/19 12:09:37;;;;;;;;;;;;;;;;;;5113914;28;1067;-66
2023/09/19 12:12:02;;;;;;;;;;;;;;;;;;5114018;28;852;-66
2023/09/19 12:14:28;;;;;;;;;;;;;;;;;;5112823;28;950;-64
2023/09/19 12:16:55;;;;;;;;;;;;;;;;;;5113322;28;1968;-65
2023/09/19 12:19:21;;;;;;;;;;;;;;;;;;5112237;28;872;-65
2023/09/19 12:21:57;;;;;;;;;;;;;;;;;;5114647;28;817;-65
2023/09/19 12:24:26;;;;;;;;;;;;;;;;;;5113582;28;839;-64
2023/09/19 12:26:52;;;;;;;;;;;;;;;;;;5114040;28;1117;-65
2023/09/19 12:29:21;;;;;;;;;;;;;;;;;;5113681;27;1065;-65
2023/09/19 12:31:59;;;;;;;;;;;;;;;;;;5114053;28;796;-65
2023/09/19 12:34:28;;;;;;;;;;;;;;;;;;5112670;28;1166;-65
2023/09/19 12:37:13;;;;;;;;;;;;;;;;;;5112649;28;1902;-64
2023/09/19 12:39:41;;;;;;;;;;;;;;;;;;5112388;28;737;-65
2023/09/19 12:42:10;;;;;;;;;;;;;;;;;;5113042;28;832;-65
2023/09/19 12:44:37;;;;;;;;;;;;;;;;;;5112088;28;832;-65
2023/09/19 12:47:15;;;;;;;;;;;;;;;;;;5112728;28;824;-65
2023/09/19 12:50:00;;;;;;;;;;;;;;;;;;5112266;28;836;-65
2023/09/19 12:52:26;;;;;;;;;;;;;;;;;;5111870;28;961;-65
2023/09/19 12:54:51;;;;;;;;;;;;;;;;;;5112744;28;848;-65
2023/09/19 12:57:26;;;;;;;;;;;;;;;;;;5112291;28;1898;-65
2023/09/19 12:59:52;;;;;;;;;;;;;;;;;;5112606;28;801;-65
2023/09/19 13:02:20;;;;;;;;;;;;;;;;;;5111400;28;1782;-66
2023/09/19 13:04:52;;;;;;;;;;;;;;;;;;5111569;28;968;-65
2023/09/19 13:07:36;;;;;;;;;;;;;;;;;;5112366;28;919;-66
2023/09/19 13:10:04;;;;;;;;;;;;;;;;;;5112372;28;895;-65
2023/09/19 13:12:40;;;;;;;;;;;;;;;;;;5111299;28;1018;-65
2023/09/19 13:15:13;;;;;;;;;;;;;;;;;;5111682;28;1910;-65
2023/09/19 13:17:48;;;;;;;;;;;;;;;;;;5111083;28;914;-64
2023/09/19 13:20:32;;;;;;;;;;;;;;;;;;5111903;28;812;-64
2023/09/19 13:23:06;;;;;;;;;;;;;;;;;;5111195;28;852;-64
2023/09/19 13:25:33;;;;;;;;;;;;;;;;;;5110857;28;963;-63
2023/09/19 13:27:59;;;;;;;;;;;;;;;;;;5112274;28;855;-64
2023/09/19 13:30:34;;;;;;;;;;;;;;;;;;5111779;28;932;-66
2023/09/19 13:33:09;;;;;;;;;;;;;;;;;;5112425;28;1059;-66
2023/09/19 13:35:35;;;;;;;;;;;;;;;;;;5111612;28;1894;-65
2023/09/19 13:38:00;;;;;;;;;;;;;;;;;;5112194;28;868;-66
2023/09/19 13:40:30;;;;;;;;;;;;;;;;;;5112323;28;883;-66
2023/09/19 13:42:55;;;;;;;;;;;;;;;;;;5112355;28;840;-66
2023/09/19 13:45:24;;;;;;;;;;;;;;;;;;5112349;28;883;-65
2023/09/19 13:47:49;;;;;;;;;;;;;;;;;;5110228;28;1373;-66
2023/09/19 13:50:15;;;;;;;;;;;;;;;;;;5112346;28;946;-66
2023/09/19 13:52:40;;;;;;;;;;;;;;;;;;5111240;28;895;-67
2023/09/19 13:55:06;;;;;;;;;;;;;;;;;;5110832;28;1965;-65
2023/09/19 13:57:33;;;;;;;;;;;;;;;;;;5109813;28;984;-67
2023/09/19 13:59:58;;;;;;;;;;;;;;;;;;5112388;28;851;-66
2023/09/19 14:02:24;;;;;;;;;;;;;;;;;;5111582;28;955;-67
2023/09/19 14:04:50;;;;;;;;;;;;;;;;;;5109145;28;914;-66
2023/09/19 14:07:18;;;;;;;;;;;;;;;;;;5111754;28;844;-67
2023/09/19 14:09:43;;;;;;;;;;;;;;;;;;5110699;28;959;-67
2023/09/19 14:12:09;;;;;;;;;;;;;;;;;;5111087;28;852;-67
2023/09/19 14:14:34;;;;;;;;;;;;;;;;;;5111075;28;1048;-65
2023/09/19 14:17:02;;;;;;;;;;;;;;;;;;5110527;28;1901;-65
2023/09/19 14:19:28;;;;;;;;;;;;;;;;;;5110164;28;1403;-66
2023/09/19 14:21:56;;;;;;;;;;;;;;;;;;5112056;28;948;-66
2023/09/19 14:24:22;;;;;;;;;;;;;;;;;;5111721;28;855;-67
2023/09/19 14:26:47;;;;;;;;;;;;;;;;;;5109885;28;870;-67
2023/09/19 14:29:13;;;;;;;;;;;;;;;;;;5115199;28;828;-67
2023/09/19 14:31:41;;;;;;;;;;;;;;;;;;5114508;28;907;-66
2023/09/19 14:34:06;;;;;;;;;;;;;;;;;;5115308;28;848;-66
2023/09/19 14:36:33;;;;;;;;;;;;;;;;;;5114613;28;1967;-66
2023/09/19 14:38:58;;;;;;;;;;;;;;;;;;5115290;28;808;-66
2023/09/19 14:41:25;;;;;;;;;;;;;;;;;;5115449;28;903;-66
2023/09/19 14:43:51;;;;;;;;;;;;;;;;;;5113470;28;1633;-66
2023/09/19 14:46:16;;;;;;;;;;;;;;;;;;5115039;28;914;-66
2023/09/19 14:48:42;;;;;;;;;;;;;;;;;;5114232;28;896;-66
2023/09/19 14:51:08;;;;;;;;;;;;;;;;;;5114219;28;832;-66
2023/09/19 14:53:38;;;;;;;;;;;;;;;;;;5114409;28;894;-66
2023/09/19 14:56:04;;;;;;;;;;;;;;;;;;5114878;28;1947;-66
2023/09/19 14:58:29;;;;;;;;;;;;;;;;;;5114513;28;884;-66
2023/09/19 15:01:02;;;;;;;;;;;;;;;;;;5114629;28;859;-66
2023/09/19 15:03:30;;;;;;;;;;;;;;;;;;5114603;28;832;-66
2023/09/19 15:05:59;;;;;;;;;;;;;;;;;;5114754;27;840;-66
2023/09/19 15:08:24;;;;;;;;;;;;;;;;;;5115465;28;836;-66
2023/09/19 15:10:52;;;;;;;;;;;;;;;;;;5114532;28;686;-66
2023/09/19 15:13:18;;;;;;;;;;;;;;;;;;5114916;28;863;-66
2023/09/19 15:15:44;;;;;;;;;;;;;;;;;;5114270;28;1902;-67
2023/09/19 15:18:12;;;;;;;;;;;;;;;;;;5115234;28;828;-67
2023/09/19 15:20:42;;;;;;;;;;;;;;;;;;5114997;28;804;-67
2023/09/19 15:23:07;;;;;;;;;;;;;;;;;;5114906;28;955;-67
2023/09/19 15:25:34;;;;;;;;;;;;;;;;;;5114480;28;856;-67
2023/09/19 15:28:07;;;;;;;;;;;;;;;;;;5113556;28;876;-66
2023/09/19 15:30:36;;;;;;;;;;;;;;;;;;5114196;28;856;-67
2023/09/19 15:33:01;;;;;;;;;;;;;;;;;;5114605;28;986;-66
2023/09/19 15:35:26;;;;;;;;;;;;;;;;;;5114226;28;1898;-67
2023/09/19 15:37:53;;;;;;;;;;;;;;;;;;5113099;28;1289;-67
2023/09/19 15:40:19;;;;;;;;;;;;;;;;;;5113649;28;765;-66
2023/09/19 15:42:44;;;;;;;;;;;;;;;;;;5113462;28;896;-67
2023/09/19 15:45:10;;;;;;;;;;;;;;;;;;5113657;28;804;-67
2023/09/19 15:47:37;;;;;;;;;;;;;;;;;;5114458;28;911;-67
2023/09/19 15:50:02;;;;;;;;;;;;;;;;;;5114554;27;902;-67
2023/09/19 15:52:28;;;;;;;;;;;;;;;;;;5113136;28;1085;-67
2023/09/19 15:54:53;;;;;;;;;;;;;;;;;;5114694;28;903;-65
2023/09/19 15:57:19;;;;;;;;;;;;;;;;;;5114407;28;1969;-65
2023/09/19 15:59:46;;;;;;;;;;;;;;;;;;5113298;28;824;-66
2023/09/19 16:02:12;;;;;;;;;;;;;;;;;;5112668;28;1332;-66
2023/09/19 16:04:38;;;;;;;;;;;;;;;;;;5114268;28;1027;-66
2023/09/19 16:07:04;;;;;;;;;;;;;;;;;;5114213;28;875;-65
2023/09/19 16:09:29;;;;;;;;;;;;;;;;;;5113378;28;833;-66
2023/09/19 16:11:54;;;;;;;;;;;;;;;;;;5114035;28;839;-66
2023/09/19 16:14:21;;;;;;;;;;;;;;;;;;5113761;28;1027;-65
2023/09/19 16:16:46;;;;;;;;;;;;;;;;;;5111701;28;1910;-65
2023/09/19 16:19:12;;;;;;;;;;;;;;;;;;5114112;28;852;-66
2023/09/19 16:21:37;;;;;;;;;;;;;;;;;;5113953;28;887;-65
2023/09/19 16:24:03;;;;;;;;;;;;;;;;;;5116013;27;741;-66
2023/09/19 16:26:29;;;;;;;;;;;;;;;;;;5115363;27;840;-66
2023/09/19 16:29:00;;;;;;;;;;;;;;;;;;5115868;28;870;-66
2023/09/19 16:31:26;;;;;;;;;;;;;;;;;;5114059;28;1329;-66
2023/09/19 16:33:52;;;;;;;;;;;;;;;;;;5113248;28;868;-67
2023/09/19 16:36:18;;;;;;;;;;;;;;;;;;5115409;28;1910;-66
2023/09/19 16:38:44;;;;;;;;;;;;;;;;;;5121656;28;962;-67
2023/09/19 16:41:11;;;;;;;;;;;;;;;;;;5119178;28;1019;-66
2023/09/19 16:43:36;;;;;;;;;;;;;;;;;;5114720;28;815;-67
2023/09/19 16:46:08;;;;;;;;;;;;;;;;;;5116182;28;892;-66
2023/09/19 16:48:34;;;;;;;;;;;;;;;;;;5113782;28;942;-66
2023/09/19 16:51:03;;;;;;;;;;;;;;;;;;5112751;28;974;-67
2023/09/19 16:53:28;;;;;;;;;;;;;;;;;;5111678;28;1242;-67
2023/09/19 16:55:53;;;;;;;;;;;;;;;;;;5113558;28;1898;-66
2023/09/19 16:58:18;;;;;;;;;;;;;;;;;;5114121;28;1014;-67
2023/09/19 17:00:46;;;;;;;;;;;;;;;;;;5112676;28;820;-66
2023/09/19 17:03:12;;;;;;;;;;;;;;;;;;5113753;28;904;-66
2023/09/19 17:05:39;;;;;;;;;;;;;;;;;;5113027;28;911;-66
2023/09/19 17:08:05;;;;;;;;;;;;;;;;;;5113210;28;891;-67
2023/09/19 17:10:32;;;;;;;;;;;;;;;;;;5112419;28;847;-66
2023/09/19 17:12:57;;;;;;;;;;;;;;;;;;5112163;28;888;-66
2023/09/19 17:15:24;;;;;;;;;;;;;;;;;;5110727;28;1906;-67
2023/09/19 17:17:49;;;;;;;;;;;;;;;;;;5111434;28;895;-66
2023/09/19 17:20:14;;;;;;;;;;;;;;;;;;5112226;28;844;-66
2023/09/19 17:22:40;;;;;;;;;;;;;;;;;;5111270;28;899;-66
2023/09/19 17:25:07;;;;;;;;;;;;;;;;;;5110331;28;1213;-66